createdAt,value
2017-08-10T00:00:03.045Z,84.50
2017-08-10T00:02:31.285Z,84.00
2017-08-10T00:04:58.752Z,84.00
2017-08-10T00:07:26.216Z,84.00
2017-08-10T00:09:53.719Z,84.00
2017-08-10T00:12:21.188Z,84.30
2017-08-10T00:14:48.649Z,84.00
2017-08-10T00:17:16.132Z,83.50
2017-08-10T00:19:43.600Z,85.10
2017-08-10T00:22:11.091Z,84.70
2017-08-10T00:24:38.556Z,84.50
2017-08-10T00:27:06.020Z,85.00
2017-08-10T00:29:33.501Z,85.50
2017-08-10T00:32:00.964Z,85.60
2017-08-10T00:34:28.488Z,86.00
2017-08-10T00:36:55.958Z,86.40
2017-08-10T00:39:23.435Z,86.20
2017-08-10T00:41:50.916Z,86.10
2017-08-10T00:44:18.655Z,86.20
2017-08-10T00:46:46.120Z,86.40
2017-08-10T00:49:13.613Z,86.10
2017-08-10T00:51:41.076Z,86.30
2017-08-10T00:54:08.546Z,86.20
2017-08-10T00:56:36.017Z,85.60
2017-08-10T00:59:03.499Z,85.10
2017-08-10T01:01:30.963Z,85.00
2017-08-10T01:03:58.440Z,84.90
2017-08-10T01:06:25.908Z,84.80
2017-08-10T01:08:53.393Z,84.80
2017-08-10T01:11:21.624Z,83.80
2017-08-10T01:13:49.107Z,84.30
2017-08-10T01:16:16.568Z,84.30
2017-08-10T01:18:44.038Z,83.90
2017-08-10T01:21:12.289Z,84.90
2017-08-10T01:23:39.755Z,84.00
2017-08-10T01:26:07.227Z,83.90
2017-08-10T01:28:34.959Z,84.40
2017-08-10T01:31:02.433Z,84.70
2017-08-10T01:33:29.897Z,84.50
2017-08-10T01:35:57.368Z,84.50
2017-08-10T01:38:25.032Z,84.50
2017-08-10T01:40:53.289Z,84.30
2017-08-10T01:43:20.756Z,84.30
2017-08-10T01:45:48.237Z,84.20
2017-08-10T01:48:15.700Z,84.10
2017-08-10T01:50:43.936Z,84.20
2017-08-10T01:53:11.406Z,84.20
2017-08-10T01:55:38.875Z,84.20
2017-08-10T01:58:07.112Z,84.40
2017-08-10T02:00:34.592Z,84.40
2017-08-10T02:03:02.059Z,84.40
2017-08-10T02:05:29.552Z,84.50
2017-08-10T02:07:57.025Z,84.70
2017-08-10T02:10:24.487Z,85.20
2017-08-10T02:12:51.977Z,85.30
2017-08-10T02:15:19.443Z,85.40
2017-08-10T02:17:46.924Z,85.30
2017-08-10T02:20:15.161Z,84.60
2017-08-10T02:22:42.627Z,84.80
2017-08-10T02:25:10.087Z,84.80
2017-08-10T02:27:37.559Z,85.00
2017-08-10T02:30:05.030Z,84.90
2017-08-10T02:32:33.262Z,86.50
2017-08-10T02:35:00.721Z,85.60
2017-08-10T02:37:28.207Z,85.60
2017-08-10T02:39:55.667Z,85.50
2017-08-10T02:42:23.147Z,85.90
2017-08-10T02:44:51.376Z,86.30
2017-08-10T02:47:18.854Z,86.30
2017-08-10T02:49:46.314Z,86.90
2017-08-10T02:52:13.794Z,87.00
2017-08-10T02:54:42.414Z,87.40
2017-08-10T02:57:09.879Z,87.40
2017-08-10T02:59:37.360Z,88.20
2017-08-10T03:02:04.820Z,87.90
2017-08-10T03:04:32.280Z,87.70
2017-08-10T03:06:59.748Z,87.20
2017-08-10T03:09:27.211Z,87.20
2017-08-10T03:11:54.694Z,86.70
2017-08-10T03:14:22.923Z,86.50
2017-08-10T03:16:50.399Z,86.40
2017-08-10T03:19:17.857Z,86.30
2017-08-10T03:21:45.331Z,86.20
2017-08-10T03:24:12.813Z,86.40
2017-08-10T03:26:40.284Z,86.30
2017-08-10T03:29:07.752Z,86.10
2017-08-10T03:31:35.231Z,85.70
2017-08-10T03:34:02.703Z,85.90
2017-08-10T03:36:30.184Z,86.00
2017-08-10T03:38:58.413Z,86.00
2017-08-10T03:41:25.882Z,85.90
2017-08-10T03:43:53.346Z,85.90
2017-08-10T03:46:20.821Z,86.00
2017-08-10T03:48:48.282Z,86.10
2017-08-10T03:51:15.771Z,86.20
2017-08-10T03:53:43.249Z,86.10
2017-08-10T03:56:10.707Z,86.00
2017-08-10T03:58:38.999Z,86.60
2017-08-10T04:01:06.470Z,86.80
2017-08-10T04:03:33.955Z,87.30
2017-08-10T04:06:02.188Z,87.50
2017-08-10T04:08:29.665Z,87.60
2017-08-10T04:10:57.128Z,87.30
2017-08-10T04:13:25.364Z,88.30
2017-08-10T04:15:52.831Z,88.30
2017-08-10T04:18:20.298Z,88.20
2017-08-10T04:20:47.755Z,88.10
2017-08-10T04:23:15.222Z,88.30
2017-08-10T04:25:42.687Z,88.00
2017-08-10T04:28:10.155Z,87.80
2017-08-10T04:30:37.615Z,88.20
2017-08-10T04:33:05.091Z,88.50
2017-08-10T04:35:33.325Z,88.30
2017-08-10T04:38:00.791Z,88.40
2017-08-10T04:40:28.255Z,88.60
2017-08-10T04:42:55.762Z,88.70
2017-08-10T04:45:23.962Z,88.70
2017-08-10T04:47:51.459Z,88.70
2017-08-10T04:50:18.939Z,89.10
2017-08-10T04:52:47.167Z,88.30
2017-08-10T04:55:14.643Z,88.30
2017-08-10T04:57:42.106Z,89.30
2017-08-10T05:00:09.601Z,89.30
2017-08-10T05:02:37.830Z,89.60
2017-08-10T05:05:05.314Z,89.60
2017-08-10T05:07:38.861Z,89.60
2017-08-10T05:10:06.326Z,89.50
2017-08-10T05:12:33.787Z,89.60
2017-08-10T05:15:01.255Z,87.30
2017-08-10T05:17:28.729Z,87.30
2017-08-10T05:19:56.203Z,87.20
2017-08-10T05:22:23.676Z,88.60
2017-08-10T05:24:51.143Z,88.10
2017-08-10T05:27:18.611Z,87.90
2017-08-10T05:29:46.494Z,86.10
2017-08-10T05:32:13.951Z,86.70
2017-08-10T05:34:41.429Z,87.30
2017-08-10T05:37:10.815Z,86.90
2017-08-10T05:39:38.301Z,87.70
2017-08-10T05:42:05.778Z,88.10
2017-08-10T05:44:33.247Z,88.30
2017-08-10T05:47:01.494Z,88.70
2017-08-10T05:49:28.959Z,88.10
2017-08-10T05:51:56.438Z,88.00
2017-08-10T05:54:24.730Z,88.30
2017-08-10T05:56:52.973Z,87.80
2017-08-10T05:59:20.434Z,87.80
2017-08-10T06:01:47.930Z,87.10
2017-08-10T06:04:16.167Z,87.70
2017-08-10T06:06:43.647Z,87.60
2017-08-10T06:09:11.917Z,88.90
2017-08-10T06:11:40.177Z,90.10
2017-08-10T06:14:07.645Z,90.10
2017-08-10T06:16:35.120Z,90.70
2017-08-10T06:19:03.355Z,90.90
2017-08-10T06:21:30.839Z,90.80
2017-08-10T06:23:58.315Z,90.90
2017-08-10T06:26:27.680Z,90.90
2017-08-10T06:28:55.152Z,90.90
2017-08-10T06:31:23.108Z,90.80
2017-08-10T06:33:50.578Z,90.80
2017-08-10T06:36:18.050Z,90.80
2017-08-10T06:38:46.299Z,91.00
2017-08-10T06:41:13.760Z,91.00
2017-08-10T06:43:41.260Z,91.00
2017-08-10T06:46:09.501Z,90.80
2017-08-10T06:48:36.975Z,90.80
2017-08-10T06:51:04.444Z,90.70
2017-08-10T06:53:32.683Z,91.00
2017-08-10T06:56:00.151Z,90.80
2017-08-10T06:58:27.622Z,90.80
2017-08-10T07:00:55.091Z,90.70
2017-08-10T07:03:23.335Z,90.60
2017-08-10T07:05:50.811Z,90.60
2017-08-10T07:08:18.463Z,90.30
2017-08-10T07:10:45.932Z,90.30
2017-08-10T07:13:13.407Z,90.40
2017-08-10T07:15:40.881Z,90.90
2017-08-10T07:18:09.118Z,91.30
2017-08-10T07:20:36.585Z,91.30
2017-08-10T07:23:04.076Z,91.20
2017-08-10T07:25:32.299Z,91.10
2017-08-10T07:27:59.772Z,91.10
2017-08-10T07:30:27.239Z,91.20
2017-08-10T07:32:54.704Z,91.00
2017-08-10T07:35:22.942Z,90.70
2017-08-10T07:37:50.415Z,90.50
2017-08-10T07:40:17.889Z,90.90
2017-08-10T07:42:45.363Z,90.60
2017-08-10T07:45:13.652Z,90.80
2017-08-10T07:47:41.135Z,90.80
2017-08-10T07:50:08.607Z,90.90
2017-08-10T07:52:36.079Z,91.20
2017-08-10T07:55:03.572Z,91.10
2017-08-10T07:57:31.803Z,91.40
2017-08-10T07:59:59.282Z,91.40
2017-08-10T08:02:26.749Z,91.70
2017-08-10T08:04:54.228Z,92.00
2017-08-10T08:07:22.467Z,91.50
2017-08-10T08:09:49.949Z,91.40
2017-08-10T08:12:17.422Z,91.60
2017-08-10T08:14:45.743Z,91.50
2017-08-10T08:17:13.207Z,91.20
2017-08-10T08:19:40.800Z,91.10
2017-08-10T08:22:08.268Z,91.10
2017-08-10T08:24:36.520Z,91.00
2017-08-10T08:27:03.987Z,91.00
2017-08-10T08:29:31.477Z,91.20
2017-08-10T08:31:59.718Z,90.70
2017-08-10T08:34:27.203Z,90.70
2017-08-10T08:36:55.444Z,90.20
2017-08-10T08:39:22.935Z,90.20
2017-08-10T08:41:51.170Z,90.20
2017-08-10T08:44:18.671Z,90.40
2017-08-10T08:46:46.913Z,90.50
2017-08-10T08:49:14.380Z,90.50
2017-08-10T08:51:41.859Z,90.10
2017-08-10T08:54:09.324Z,89.00
2017-08-10T08:56:37.567Z,89.10
2017-08-10T08:59:05.034Z,89.10
2017-08-10T09:01:32.512Z,89.10
2017-08-10T09:04:00.747Z,88.90
2017-08-10T09:06:28.234Z,88.90
2017-08-10T09:08:55.699Z,87.10
2017-08-10T09:11:23.170Z,88.00
2017-08-10T09:13:51.408Z,87.10
2017-08-10T09:16:18.897Z,87.00
2017-08-10T09:18:46.363Z,87.30
2017-08-10T09:21:13.853Z,86.50
2017-08-10T09:23:41.318Z,85.80
2017-08-10T09:26:08.799Z,87.60
2017-08-10T09:28:36.272Z,87.80
2017-08-10T09:31:03.780Z,84.50
2017-08-10T09:33:31.247Z,86.20
2017-08-10T09:35:58.726Z,86.00
2017-08-10T09:38:26.195Z,84.30
2017-08-10T09:40:53.683Z,84.60
2017-08-10T09:43:21.920Z,83.50
2017-08-10T09:45:49.403Z,83.40
2017-08-10T09:48:16.874Z,83.70
2017-08-10T09:50:45.119Z,85.00
2017-08-10T09:53:12.583Z,85.00
2017-08-10T09:55:40.063Z,86.10
2017-08-10T09:58:07.526Z,86.40
2017-08-10T10:00:35.768Z,87.40
2017-08-10T10:03:03.240Z,86.70
2017-08-10T10:05:30.710Z,86.20
2017-08-10T10:07:58.185Z,85.60
2017-08-10T10:10:26.441Z,86.20
2017-08-10T10:12:53.908Z,86.20
2017-08-10T10:15:21.383Z,86.30
2017-08-10T10:17:49.619Z,83.80
2017-08-10T10:20:17.095Z,83.60
2017-08-10T10:22:44.566Z,84.90
2017-08-10T10:25:12.052Z,84.80
2017-08-10T10:27:39.523Z,85.20
2017-08-10T10:30:07.003Z,85.60
2017-08-10T10:32:34.477Z,85.70
2017-08-10T10:35:02.056Z,85.50
2017-08-10T10:37:30.293Z,84.10
2017-08-10T10:39:57.764Z,84.60
2017-08-10T10:42:25.249Z,83.10
2017-08-10T10:44:53.502Z,85.70
2017-08-10T10:47:20.982Z,85.50
2017-08-10T10:49:49.216Z,84.20
2017-08-10T10:52:16.687Z,84.20
2017-08-10T10:54:44.152Z,83.90
2017-08-10T10:57:11.630Z,81.50
2017-08-10T10:59:39.096Z,81.50
2017-08-10T11:02:07.340Z,81.90
2017-08-10T11:04:34.803Z,81.90
2017-08-10T11:07:02.278Z,80.70
2017-08-10T11:09:29.778Z,80.10
2017-08-10T11:11:57.257Z,80.10
2017-08-10T11:14:24.731Z,81.20
2017-08-10T11:16:52.209Z,80.00
2017-08-10T11:19:19.675Z,80.80
2017-08-10T11:21:47.155Z,81.00
2017-08-10T11:24:14.627Z,81.70
2017-08-10T11:26:42.115Z,79.10
2017-08-10T11:29:09.593Z,78.80
2017-08-10T11:31:37.074Z,79.60
2017-08-10T11:34:05.310Z,79.90
2017-08-10T11:36:32.785Z,79.50
2017-08-10T11:39:00.254Z,80.20
2017-08-10T11:41:27.778Z,79.10
2017-08-10T11:43:55.256Z,80.00
2017-08-10T11:46:22.743Z,77.10
2017-08-10T11:48:50.990Z,75.90
2017-08-10T11:51:18.475Z,76.50
2017-08-10T11:53:45.944Z,75.00
2017-08-10T11:56:13.419Z,76.20
2017-08-10T11:58:40.901Z,76.20
2017-08-10T12:01:08.371Z,76.50
2017-08-10T12:03:35.840Z,77.40
2017-08-10T12:06:03.316Z,77.80
2017-08-10T12:08:31.555Z,79.00
2017-08-10T12:10:59.035Z,79.00
2017-08-10T12:13:26.504Z,74.10
2017-08-10T12:15:54.751Z,75.30
2017-08-10T12:18:22.214Z,75.20
2017-08-10T12:20:49.691Z,74.20
2017-08-10T12:23:17.936Z,75.20
2017-08-10T12:25:45.415Z,75.00
2017-08-10T12:28:12.888Z,76.10
2017-08-10T12:30:41.147Z,75.00
2017-08-10T12:33:08.610Z,74.60
2017-08-10T12:35:36.091Z,74.60
2017-08-10T12:38:04.322Z,74.40
2017-08-10T12:40:31.789Z,74.20
2017-08-10T12:42:59.274Z,72.10
2017-08-10T12:45:27.516Z,74.20
2017-08-10T12:47:55.024Z,74.00
2017-08-10T12:50:22.491Z,73.60
2017-08-10T12:52:49.967Z,73.20
2017-08-10T12:55:17.432Z,73.40
2017-08-10T12:57:45.685Z,71.00
2017-08-10T13:00:13.152Z,70.20
2017-08-10T13:02:40.627Z,71.70
2017-08-10T13:05:08.858Z,74.40
2017-08-10T13:07:36.327Z,74.40
2017-08-10T13:10:03.797Z,73.80
2017-08-10T13:12:31.264Z,75.60
2017-08-10T13:14:58.738Z,73.30
2017-08-10T13:17:26.980Z,72.00
2017-08-10T13:19:54.452Z,72.10
2017-08-10T13:22:21.927Z,73.50
2017-08-10T13:24:50.459Z,70.00
2017-08-10T13:27:17.951Z,69.60
2017-08-10T13:29:45.434Z,72.20
2017-08-10T13:32:13.679Z,73.30
2017-08-10T13:34:41.152Z,73.20
2017-08-10T13:37:08.624Z,74.70
2017-08-10T13:39:36.099Z,73.40
2017-08-10T13:44:38.215Z,72.50
2017-08-10T13:47:05.704Z,71.70
2017-08-10T13:49:33.173Z,71.60
2017-08-10T13:52:00.658Z,73.10
2017-08-10T13:54:28.895Z,72.80
2017-08-10T13:56:56.411Z,72.70
2017-08-10T13:59:23.885Z,73.40
2017-08-10T14:01:51.380Z,73.10
2017-08-10T14:04:18.839Z,72.20
2017-08-10T14:06:46.323Z,73.20
2017-08-10T14:09:13.996Z,73.00
2017-08-10T14:11:41.481Z,73.10
2017-08-10T14:14:08.955Z,74.10
2017-08-10T14:16:36.432Z,74.50
2017-08-10T14:19:03.894Z,75.20
2017-08-10T14:21:31.382Z,73.80
2017-08-10T14:23:58.849Z,75.20
2017-08-10T14:26:26.335Z,75.00
2017-08-10T14:28:53.797Z,74.60
2017-08-10T14:31:21.268Z,75.00
2017-08-10T14:33:48.748Z,74.60
2017-08-10T14:36:16.229Z,73.60
2017-08-10T14:38:44.475Z,73.10
2017-08-10T14:41:11.944Z,73.10
2017-08-10T14:43:39.427Z,74.40
2017-08-10T14:46:06.905Z,74.40
2017-08-10T14:48:34.383Z,74.30
2017-08-10T14:51:01.858Z,75.30
2017-08-10T14:53:29.331Z,74.50
2017-08-10T14:55:56.806Z,74.50
2017-08-10T14:58:25.048Z,74.40
2017-08-10T15:00:52.510Z,74.20
2017-08-10T15:03:19.989Z,73.00
2017-08-10T15:05:47.451Z,73.80
2017-08-10T15:08:15.695Z,72.50
2017-08-10T15:10:43.164Z,72.90
2017-08-10T15:13:10.632Z,73.50
2017-08-10T15:15:38.095Z,74.00
2017-08-10T15:18:05.576Z,73.40
2017-08-10T15:20:33.815Z,73.30
2017-08-10T15:23:01.288Z,73.30
2017-08-10T15:25:28.760Z,73.50
2017-08-10T15:27:56.992Z,72.00
2017-08-10T15:30:24.475Z,72.00
2017-08-10T15:32:51.990Z,72.80
2017-08-10T15:35:19.475Z,72.20
2017-08-10T15:37:46.953Z,72.20
2017-08-10T15:40:14.430Z,70.30
2017-08-10T15:42:42.698Z,71.00
2017-08-10T15:45:10.223Z,70.90
2017-08-10T15:47:37.730Z,71.20
2017-08-10T15:50:06.066Z,71.80
2017-08-10T15:52:33.532Z,71.80
2017-08-10T15:55:01.006Z,70.50
2017-08-10T15:57:28.483Z,70.80
2017-08-10T15:59:56.727Z,72.00
2017-08-10T16:02:24.204Z,72.00
2017-08-10T16:04:51.736Z,73.60
2017-08-10T16:07:19.220Z,72.60
2017-08-10T16:09:46.699Z,72.20
2017-08-10T16:12:14.955Z,72.00
2017-08-10T16:14:42.435Z,71.80
2017-08-10T16:17:10.689Z,73.00
2017-08-10T16:19:38.157Z,73.00
2017-08-10T16:22:06.405Z,72.70
2017-08-10T16:24:33.895Z,72.30
2017-08-10T16:27:02.142Z,72.00
2017-08-10T16:29:29.615Z,71.30
2017-08-10T16:31:57.083Z,72.20
2017-08-10T16:34:25.312Z,72.10
2017-08-10T16:36:52.812Z,71.40
2017-08-10T16:39:20.268Z,72.00
2017-08-10T16:41:47.747Z,72.40
2017-08-10T16:44:15.987Z,71.40
2017-08-10T16:46:43.492Z,71.30
2017-08-10T16:49:11.017Z,70.80
2017-08-10T16:51:38.491Z,70.10
2017-08-10T16:54:06.721Z,69.50
2017-08-10T16:56:34.266Z,69.40
2017-08-10T16:59:01.725Z,68.80
2017-08-10T17:01:29.195Z,68.20
2017-08-10T17:03:56.660Z,69.90
2017-08-10T17:06:24.127Z,68.10
2017-08-10T17:08:51.586Z,68.40
2017-08-10T17:11:19.052Z,67.70
2017-08-10T17:13:46.524Z,67.80
2017-08-10T17:16:13.979Z,67.90
2017-08-10T17:18:41.454Z,68.90
2017-08-10T17:21:09.674Z,68.60
2017-08-10T17:23:37.143Z,68.50
2017-08-10T17:26:04.608Z,68.70
2017-08-10T17:28:32.070Z,68.30
2017-08-10T17:30:59.527Z,68.80
2017-08-10T17:33:26.995Z,69.30
2017-08-10T17:35:54.468Z,68.50
2017-08-10T17:38:21.935Z,69.70
2017-08-10T17:40:50.167Z,69.90
2017-08-10T17:43:17.645Z,69.90
2017-08-10T17:45:45.116Z,70.70
2017-08-10T17:48:12.579Z,70.90
2017-08-10T17:50:40.055Z,70.40
2017-08-10T17:53:08.331Z,70.60
2017-08-10T17:55:36.564Z,71.10
2017-08-10T17:58:04.050Z,70.90
2017-08-10T18:00:32.286Z,72.10
2017-08-10T18:02:59.755Z,71.10
2017-08-10T18:05:27.314Z,71.00
2017-08-10T18:07:54.775Z,71.20
2017-08-10T18:10:22.248Z,71.30
2017-08-10T18:12:49.723Z,71.60
2017-08-10T18:15:17.967Z,70.60
2017-08-10T18:17:45.425Z,70.60
2017-08-10T18:20:12.903Z,71.10
2017-08-10T18:22:40.371Z,71.60
2017-08-10T18:25:07.847Z,71.20
2017-08-10T18:27:36.092Z,71.20
2017-08-10T18:30:03.571Z,71.20
2017-08-10T18:32:31.804Z,71.30
2017-08-10T18:34:59.267Z,71.20
2017-08-10T18:37:26.827Z,71.10
2017-08-10T18:39:54.308Z,71.60
2017-08-10T18:42:21.786Z,72.30
2017-08-10T18:44:50.053Z,72.10
2017-08-10T18:47:17.519Z,72.00
2017-08-10T18:49:45.763Z,73.30
2017-08-10T18:52:13.226Z,73.20
2017-08-10T18:54:40.689Z,73.50
2017-08-10T18:57:08.159Z,74.00
2017-08-10T18:59:35.623Z,74.30
2017-08-10T19:02:03.864Z,74.90
2017-08-10T19:04:31.318Z,74.80
2017-08-10T19:06:58.800Z,75.50
2017-08-10T19:09:26.267Z,75.70
2017-08-10T19:11:53.732Z,75.60
2017-08-10T19:14:21.960Z,78.10
2017-08-10T19:16:49.432Z,78.10
2017-08-10T19:19:16.892Z,78.90
2017-08-10T19:21:44.365Z,79.50
2017-08-10T19:24:11.824Z,79.30
2017-08-10T19:26:39.291Z,80.40
2017-08-10T19:29:07.432Z,80.20
2017-08-10T19:31:35.014Z,80.00
2017-08-10T19:34:02.467Z,79.80
2017-08-10T19:36:29.951Z,79.20
2017-08-10T19:38:58.181Z,81.10
2017-08-10T19:41:25.639Z,81.00
2017-08-10T19:43:53.112Z,81.60
2017-08-10T19:46:20.584Z,81.80
2017-08-10T19:48:48.065Z,82.00
2017-08-10T19:51:16.293Z,82.60
2017-08-10T19:53:43.756Z,82.50
2017-08-10T19:56:11.220Z,82.30
2017-08-10T19:58:38.701Z,81.40
2017-08-10T20:01:06.178Z,82.10
2017-08-10T20:03:34.429Z,83.00
2017-08-10T20:06:02.406Z,82.20
2017-08-10T20:08:29.881Z,83.00
2017-08-10T20:10:58.119Z,84.00
2017-08-10T20:13:25.590Z,83.90
2017-08-10T20:15:53.052Z,84.30
2017-08-10T20:18:20.521Z,84.10
2017-08-10T20:20:47.980Z,84.10
2017-08-10T20:23:16.220Z,84.20
2017-08-10T20:25:43.683Z,84.10
2017-08-10T20:28:11.184Z,84.60
2017-08-10T20:30:39.423Z,84.40
2017-08-10T20:33:06.910Z,84.30
2017-08-10T20:35:35.132Z,83.20
2017-08-10T20:38:02.590Z,83.10
2017-08-10T20:40:30.068Z,83.40
2017-08-10T20:42:57.527Z,83.30
2017-08-10T20:45:24.995Z,83.10
2017-08-10T20:47:52.466Z,83.90
2017-08-10T20:50:19.931Z,83.40
2017-08-10T20:52:48.160Z,84.30
2017-08-10T20:55:15.640Z,84.00
2017-08-10T20:57:43.364Z,84.30
2017-08-10T21:00:10.839Z,83.80
2017-08-10T21:02:38.310Z,83.70
2017-08-10T21:05:06.691Z,83.40
2017-08-10T21:07:34.151Z,84.30
2017-08-10T21:10:01.629Z,85.70
2017-08-10T21:12:29.095Z,86.40
2017-08-10T21:14:56.575Z,86.70
2017-08-10T21:17:24.827Z,87.20
2017-08-10T21:19:52.308Z,87.00
2017-08-10T21:22:20.550Z,88.40
2017-08-10T21:24:48.027Z,88.30
2017-08-10T21:27:15.482Z,88.70
2017-08-10T21:29:42.958Z,88.00
2017-08-10T21:32:11.196Z,89.70
2017-08-10T21:34:38.672Z,89.70
2017-08-10T21:37:06.305Z,90.30
2017-08-10T21:39:33.856Z,90.30
2017-08-10T21:42:01.331Z,90.50
2017-08-10T21:44:28.804Z,90.60
2017-08-10T21:46:56.275Z,90.90
2017-08-10T21:49:24.558Z,90.90
2017-08-10T21:51:52.801Z,91.60
2017-08-10T21:54:20.280Z,91.60
2017-08-10T21:56:47.760Z,91.60
2017-08-10T21:59:15.990Z,92.00
2017-08-10T22:01:43.472Z,92.00
2017-08-10T22:04:10.935Z,91.90
2017-08-10T22:06:38.416Z,92.20
2017-08-10T22:09:05.890Z,92.30
2017-08-10T22:11:33.369Z,92.10
2017-08-10T22:14:00.840Z,92.40
2017-08-10T22:16:28.329Z,92.50
2017-08-10T22:18:55.913Z,92.70
2017-08-10T22:21:23.414Z,92.80
2017-08-10T22:23:50.915Z,92.80
2017-08-10T22:26:18.395Z,92.90
2017-08-10T22:28:45.864Z,92.70
2017-08-10T22:31:13.335Z,92.70
2017-08-10T22:33:40.798Z,92.90
2017-08-10T22:36:08.280Z,92.90
2017-08-10T22:38:35.750Z,93.10
2017-08-10T22:41:03.231Z,93.20
2017-08-10T22:43:31.470Z,93.20
2017-08-10T22:45:58.956Z,93.20
2017-08-10T22:48:27.187Z,93.30
2017-08-10T22:50:54.663Z,93.30
2017-08-10T22:53:22.146Z,93.40
2017-08-10T22:55:50.400Z,93.30
2017-08-10T22:58:17.864Z,93.50
2017-08-10T23:00:45.339Z,93.70
2017-08-10T23:03:12.804Z,93.80
2017-08-10T23:05:41.052Z,94.10
2017-08-10T23:08:08.528Z,94.10
2017-08-10T23:10:36.034Z,94.10
2017-08-10T23:13:03.506Z,94.00
2017-08-10T23:15:30.996Z,93.90
2017-08-10T23:17:58.463Z,93.60
2017-08-10T23:20:25.932Z,93.70
2017-08-10T23:22:54.185Z,93.80
2017-08-10T23:25:21.654Z,93.80
2017-08-10T23:27:49.136Z,93.60
2017-08-10T23:30:17.373Z,93.40
2017-08-10T23:32:44.851Z,93.40
2017-08-10T23:35:12.311Z,93.30
2017-08-10T23:37:40.563Z,93.60
2017-08-10T23:40:08.035Z,93.30
2017-08-10T23:42:35.508Z,93.20
2017-08-10T23:45:03.757Z,93.40
2017-08-10T23:47:31.223Z,93.40
2017-08-10T23:49:58.692Z,93.30
2017-08-10T23:55:19.912Z,93.60
2017-08-10T23:57:47.394Z,93.50
